Time;durP1;ratioP1;P1;durP2;ratioP2;P2;SDS_P1;SDS_P2;PMS_P1;PMS_P2;Temp;Humidity;BMP_temperature;BMP_pressure;BME280_temperature;BME280_humidity;BME280_pressure;Samples;Min_cycle;Max_cycle;Signal;HPM_P1;HPM_P2
2021/09/07 00:01:00;;;;;;;;;;;;;;;;;;5072140;28;19928;-66
2021/09/07 00:03:27;;;;;;;;;;;;;;;;;;5074017;28;20039;-65
2021/09/07 00:05:54;;;;;;;;;;;;;;;;;;5070558;28;19931;-66
2021/09/07 00:08:21;;;;;;;;;;;;;;;;;;5074499;28;19931;-68
2021/09/07 00:10:48;;;;;;;;;;;;;;;;;;5075888;28;20015;-64
2021/09/07 00:13:15;;;;;;;;;;;;;;;;;;5076536;28;19924;-66
2021/09/07 00:15:42;;;;;;;;;;;;;;;;;;5076280;28;19924;-65
2021/09/07 00:18:09;;;;;;;;;;;;;;;;;;5075548;28;19925;-65
2021/09/07 00:20:36;;;;;;;;;;;;;;;;;;5071659;28;19924;-66
2021/09/07 00:23:03;;;;;;;;;;;;;;;;;;5074984;28;19928;-65
2021/09/07 00:25:30;;;;;;;;;;;;;;;;;;5078860;28;19932;-66
2021/09/07 00:27:57;;;;;;;;;;;;;;;;;;5072904;28;19990;-66
2021/09/07 00:30:24;;;;;;;;;;;;;;;;;;5071710;28;20273;-65
2021/09/07 00:32:51;;;;;;;;;;;;;;;;;;5072261;28;19947;-66
2021/09/07 00:35:18;;;;;;;;;;;;;;;;;;5071926;28;19928;-66
2021/09/07 00:37:45;;;;;;;;;;;;;;;;;;5073142;28;19925;-66
2021/09/07 00:40:12;;;;;;;;;;;;;;;;;;5073817;28;19932;-66
2021/09/07 00:42:39;;;;;;;;;;;;;;;;;;5074416;28;20138;-64
2021/09/07 00:45:06;;;;;;;;;;;;;;;;;;5073367;28;19932;-65
2021/09/07 00:47:33;;;;;;;;;;;;;;;;;;5070576;28;19932;-65
2021/09/07 00:50:00;;;;;;;;;;;;;;;;;;5070872;28;19925;-64
2021/09/07 00:52:27;;;;;;;;;;;;;;;;;;5075974;28;19978;-65
2021/09/07 00:54:54;;;;;;;;;;;;;;;;;;5072484;28;19928;-64
2021/09/07 00:57:21;;;;;;;;;;;;;;;;;;5071009;28;19928;-65
2021/09/07 00:59:48;;;;;;;;;;;;;;;;;;5072987;28;19924;-65
2021/09/07 01:02:15;;;;;;;;;;;;;;;;;;5072876;28;19932;-65
2021/09/07 01:04:42;;;;;;;;;;;;;;;;;;5074749;28;20388;-66
2021/09/07 01:07:09;;;;;;;;;;;;;;;;;;5073086;28;20845;-66
2021/09/07 01:09:36;;;;;;;;;;;;;;;;;;5072843;28;19929;-65
2021/09/07 01:12:03;;;;;;;;;;;;;;;;;;5073589;28;19931;-64
2021/09/07 01:14:30;;;;;;;;;;;;;;;;;;5074409;28;20102;-65
2021/09/07 01:16:57;;;;;;;;;;;;;;;;;;5071351;28;19979;-65
2021/09/07 01:19:24;;;;;;;;;;;;;;;;;;5075419;28;19924;-65
2021/09/07 01:21:51;;;;;;;;;;;;;;;;;;5071745;28;20284;-65
2021/09/07 01:24:18;;;;;;;;;;;;;;;;;;5071421;28;19946;-65
2021/09/07 01:26:45;;;;;;;;;;;;;;;;;;5072002;28;21029;-64
2021/09/07 01:29:12;;;;;;;;;;;;;;;;;;5070770;28;19924;-65
2021/09/07 01:31:39;;;;;;;;;;;;;;;;;;5073622;28;19947;-65
2021/09/07 01:34:06;;;;;;;;;;;;;;;;;;5073260;28;19934;-65
2021/09/07 01:36:33;;;;;;;;;;;;;;;;;;5072762;28;19924;-65
2021/09/07 01:39:00;;;;;;;;;;;;;;;;;;5069507;28;19931;-66
2021/09/07 01:41:27;;;;;;;;;;;;;;;;;;5071128;28;20419;-66
2021/09/07 01:43:54;;;;;;;;;;;;;;;;;;5070862;28;19929;-65
2021/09/07 01:46:21;;;;;;;;;;;;;;;;;;5071322;28;19929;-65
2021/09/07 01:48:48;;;;;;;;;;;;;;;;;;5072542;28;19932;-64
2021/09/07 01:51:15;;;;;;;;;;;;;;;;;;5072353;28;19924;-65
2021/09/07 01:53:42;;;;;;;;;;;;;;;;;;5069238;28;19935;-66
2021/09/07 01:56:09;;;;;;;;;;;;;;;;;;5074573;28;20348;-66
2021/09/07 01:58:36;;;;;;;;;;;;;;;;;;5072931;28;19925;-65
2021/09/07 02:01:03;;;;;;;;;;;;;;;;;;5069336;28;20592;-65
2021/09/07 02:03:30;;;;;;;;;;;;;;;;;;5072033;28;19924;-65
2021/09/07 02:05:57;;;;;;;;;;;;;;;;;;5069936;28;19925;-66
2021/09/07 02:08:24;;;;;;;;;;;;;;;;;;5071270;28;19935;-68
2021/09/07 02:10:51;;;;;;;;;;;;;;;;;;5067147;28;19955;-65
2021/09/07 02:13:18;;;;;;;;;;;;;;;;;;5070536;28;19924;-66
2021/09/07 02:15:45;;;;;;;;;;;;;;;;;;5069748;28;20292;-65
2021/09/07 02:18:12;;;;;;;;;;;;;;;;;;5073778;28;20316;-65
2021/09/07 02:20:38;;;;;;;;;;;;;;;;;;5068645;28;19928;-65
2021/09/07 02:23:06;;;;;;;;;;;;;;;;;;5069357;28;19931;-66
2021/09/07 02:25:33;;;;;;;;;;;;;;;;;;5070102;28;20094;-65
2021/09/07 02:28:02;;;;;;;;;;;;;;;;;;5070118;28;19939;-66
2021/09/07 02:30:29;;;;;;;;;;;;;;;;;;5065734;28;19963;-65
2021/09/07 02:32:58;;;;;;;;;;;;;;;;;;5071435;28;20023;-66
2021/09/07 02:35:25;;;;;;;;;;;;;;;;;;5069718;28;19928;-64
2021/09/07 02:37:52;;;;;;;;;;;;;;;;;;5072308;28;19951;-66
2021/09/07 02:40:19;;;;;;;;;;;;;;;;;;5069072;28;19943;-66
2021/09/07 02:42:46;;;;;;;;;;;;;;;;;;5073532;28;19924;-66
2021/09/07 02:45:13;;;;;;;;;;;;;;;;;;5069158;28;19935;-66
2021/09/07 02:47:41;;;;;;;;;;;;;;;;;;5070400;28;20388;-66
2021/09/07 02:50:08;;;;;;;;;;;;;;;;;;5069303;28;19924;-65
2021/09/07 02:52:35;;;;;;;;;;;;;;;;;;5072786;28;20294;-65
2021/09/07 02:55:02;;;;;;;;;;;;;;;;;;5064749;28;19935;-65
2021/09/07 02:57:28;;;;;;;;;;;;;;;;;;5065833;28;19931;-66
2021/09/07 02:59:56;;;;;;;;;;;;;;;;;;5071569;28;19931;-66
2021/09/07 03:02:23;;;;;;;;;;;;;;;;;;5071027;28;20355;-65
2021/09/07 03:04:50;;;;;;;;;;;;;;;;;;5073867;28;19931;-66
2021/09/07 03:07:17;;;;;;;;;;;;;;;;;;5075507;28;20013;-66
2021/09/07 03:09:44;;;;;;;;;;;;;;;;;;5067365;28;19933;-66
2021/09/07 03:12:11;;;;;;;;;;;;;;;;;;5069602;28;19925;-65
2021/09/07 03:14:38;;;;;;;;;;;;;;;;;;5069992;28;20341;-66
2021/09/07 03:17:05;;;;;;;;;;;;;;;;;;5069314;28;19924;-66
2021/09/07 03:19:32;;;;;;;;;;;;;;;;;;5071367;28;19939;-65
2021/09/07 03:21:59;;;;;;;;;;;;;;;;;;5065211;28;20422;-65
2021/09/07 03:24:26;;;;;;;;;;;;;;;;;;5068370;28;19928;-66
2021/09/07 03:26:53;;;;;;;;;;;;;;;;;;5066622;28;19931;-66
2021/09/07 03:29:20;;;;;;;;;;;;;;;;;;5066570;28;19931;-66
2021/09/07 03:31:47;;;;;;;;;;;;;;;;;;5066161;28;20332;-66
2021/09/07 03:34:14;;;;;;;;;;;;;;;;;;5068810;28;19924;-66
2021/09/07 03:36:41;;;;;;;;;;;;;;;;;;5072035;28;20296;-66
2021/09/07 03:39:08;;;;;;;;;;;;;;;;;;5071278;28;20311;-66
2021/09/07 03:41:35;;;;;;;;;;;;;;;;;;5068980;28;20019;-66
2021/09/07 03:44:02;;;;;;;;;;;;;;;;;;5118677;22;20000;-69
2021/09/07 03:46:29;;;;;;;;;;;;;;;;;;5094853;28;19924;-69
2021/09/07 03:48:56;;;;;;;;;;;;;;;;;;5095167;28;19946;-68
2021/09/07 03:51:23;;;;;;;;;;;;;;;;;;5095071;28;20387;-70
2021/09/07 03:53:50;;;;;;;;;;;;;;;;;;5094839;28;20014;-71
2021/09/07 03:56:17;;;;;;;;;;;;;;;;;;5095041;28;19928;-71
2021/09/07 03:58:44;;;;;;;;;;;;;;;;;;5095050;28;19924;-70
2021/09/07 04:01:11;;;;;;;;;;;;;;;;;;5095034;28;19986;-71
2021/09/07 04:03:38;;;;;;;;;;;;;;;;;;5094941;28;20294;-69
2021/09/07 04:06:05;;;;;;;;;;;;;;;;;;5094997;28;19924;-70
2021/09/07 04:08:32;;;;;;;;;;;;;;;;;;5094871;28;19924;-69
2021/09/07 04:10:59;;;;;;;;;;;;;;;;;;5094823;28;19930;-73
2021/09/07 04:13:26;;;;;;;;;;;;;;;;;;5094617;28;20010;-70
2021/09/07 04:15:53;;;;;;;;;;;;;;;;;;5094750;28;19923;-73
2021/09/07 04:18:20;;;;;;;;;;;;;;;;;;5094780;28;19924;-70
2021/09/07 04:20:47;;;;;;;;;;;;;;;;;;5094722;28;20392;-69
2021/09/07 04:23:14;;;;;;;;;;;;;;;;;;5094405;28;19947;-70
2021/09/07 04:25:43;;;;;;;;;;;;;;;;;;5094605;28;20007;-70
2021/09/07 04:28:10;;;;;;;;;;;;;;;;;;5094315;28;19924;-72
2021/09/07 04:30:37;;;;;;;;;;;;;;;;;;5094240;28;19928;-70
2021/09/07 04:33:04;;;;;;;;;;;;;;;;;;5094102;28;19959;-74
2021/09/07 04:35:31;;;;;;;;;;;;;;;;;;5094098;28;19928;-70
2021/09/07 04:37:58;;;;;;;;;;;;;;;;;;5093739;28;20306;-73
2021/09/07 04:40:25;;;;;;;;;;;;;;;;;;5094448;28;19924;-69
2021/09/07 04:42:52;;;;;;;;;;;;;;;;;;5093950;28;19924;-70
2021/09/07 04:45:19;;;;;;;;;;;;;;;;;;5093785;28;19924;-69
2021/09/07 04:47:46;;;;;;;;;;;;;;;;;;5094265;28;20283;-70
2021/09/07 04:50:12;;;;;;;;;;;;;;;;;;5093835;28;19931;-70
2021/09/07 04:52:40;;;;;;;;;;;;;;;;;;5093803;28;19924;-73
2021/09/07 04:55:06;;;;;;;;;;;;;;;;;;5093833;28;19924;-73
2021/09/07 04:57:33;;;;;;;;;;;;;;;;;;5093714;28;19934;-72
2021/09/07 05:00:00;;;;;;;;;;;;;;;;;;5077736;28;19924;-75
2021/09/07 05:02:27;;;;;;;;;;;;;;;;;;5083318;28;19932;-71
2021/09/07 05:04:54;;;;;;;;;;;;;;;;;;5093672;28;19924;-75
2021/09/07 05:07:26;;;;;;;;;;;;;;;;;;5093714;28;19931;-70
2021/09/07 05:09:54;;;;;;;;;;;;;;;;;;5092014;28;19928;-70
2021/09/07 05:12:23;;;;;;;;;;;;;;;;;;5092730;28;19924;-72
2021/09/07 05:14:50;;;;;;;;;;;;;;;;;;5093193;28;19930;-70
2021/09/07 05:17:17;;;;;;;;;;;;;;;;;;5091344;28;19950;-72
2021/09/07 05:19:44;;;;;;;;;;;;;;;;;;5090805;28;19924;-68
2021/09/07 05:22:11;;;;;;;;;;;;;;;;;;5088126;28;19924;-70
2021/09/07 05:24:38;;;;;;;;;;;;;;;;;;5088679;28;20408;-69
2021/09/07 05:27:05;;;;;;;;;;;;;;;;;;5087324;28;19924;-68
2021/09/07 05:29:32;;;;;;;;;;;;;;;;;;5089975;28;19924;-69
2021/09/07 05:31:59;;;;;;;;;;;;;;;;;;5087243;28;20410;-70
2021/09/07 05:34:29;;;;;;;;;;;;;;;;;;5083372;28;19931;-69
2021/09/07 05:36:56;;;;;;;;;;;;;;;;;;5072326;28;19939;-69
2021/09/07 05:39:24;;;;;;;;;;;;;;;;;;5091424;28;20110;-70
2021/09/07 05:41:51;;;;;;;;;;;;;;;;;;5081727;28;20322;-70
2021/09/07 05:44:18;;;;;;;;;;;;;;;;;;5087304;28;19928;-69
2021/09/07 05:46:45;;;;;;;;;;;;;;;;;;5081711;28;20027;-68
2021/09/07 05:49:12;;;;;;;;;;;;;;;;;;5087880;28;20364;-70
2021/09/07 05:51:41;;;;;;;;;;;;;;;;;;5087986;28;20277;-69
2021/09/07 05:54:08;;;;;;;;;;;;;;;;;;5085011;28;19935;-69
2021/09/07 05:56:35;;;;;;;;;;;;;;;;;;5086976;28;19924;-67
2021/09/07 05:59:02;;;;;;;;;;;;;;;;;;5088888;28;19938;-70
2021/09/07 06:01:29;;;;;;;;;;;;;;;;;;5088448;28;20403;-68
2021/09/07 06:03:56;;;;;;;;;;;;;;;;;;5089771;28;19928;-69
2021/09/07 06:06:23;;;;;;;;;;;;;;;;;;5088929;28;19924;-69
2021/09/07 06:08:50;;;;;;;;;;;;;;;;;;5089923;28;19924;-69
2021/09/07 06:11:17;;;;;;;;;;;;;;;;;;5085640;28;19928;-68
2021/09/07 06:13:44;;;;;;;;;;;;;;;;;;5090676;28;20281;-69
2021/09/07 06:16:11;;;;;;;;;;;;;;;;;;5088314;28;19924;-68
2021/09/07 06:18:38;;;;;;;;;;;;;;;;;;5090138;28;19924;-68
2021/09/07 06:21:05;;;;;;;;;;;;;;;;;;5086788;28;20686;-70
2021/09/07 06:23:32;;;;;;;;;;;;;;;;;;5091046;28;19924;-69
2021/09/07 06:25:59;;;;;;;;;;;;;;;;;;5089328;28;19947;-69
2021/09/07 06:28:26;;;;;;;;;;;;;;;;;;5088230;28;20433;-70
2021/09/07 06:30:53;;;;;;;;;;;;;;;;;;5089863;28;19924;-69
2021/09/07 06:33:20;;;;;;;;;;;;;;;;;;5087948;28;20007;-71
2021/09/07 06:35:47;;;;;;;;;;;;;;;;;;5089060;28;19928;-74
2021/09/07 06:38:14;;;;;;;;;;;;;;;;;;5085872;28;20027;-69
2021/09/07 06:40:41;;;;;;;;;;;;;;;;;;5089763;28;19928;-71
2021/09/07 06:43:08;;;;;;;;;;;;;;;;;;5087450;28;19936;-70
2021/09/07 06:45:35;;;;;;;;;;;;;;;;;;5084642;28;19931;-72
2021/09/07 06:48:02;;;;;;;;;;;;;;;;;;5078361;28;19932;-70
2021/09/07 06:50:29;;;;;;;;;;;;;;;;;;5083174;28;20388;-70
2021/09/07 06:52:59;;;;;;;;;;;;;;;;;;5085368;28;19924;-70
2021/09/07 06:55:26;;;;;;;;;;;;;;;;;;5084431;28;19931;-71
2021/09/07 06:57:54;;;;;;;;;;;;;;;;;;5085380;28;20299;-72
2021/09/07 07:00:23;;;;;;;;;;;;;;;;;;5082107;28;20916;-69
2021/09/07 07:02:50;;;;;;;;;;;;;;;;;;5091532;28;19954;-69
2021/09/07 07:05:17;;;;;;;;;;;;;;;;;;5095515;28;20014;-72
2021/09/07 07:07:44;;;;;;;;;;;;;;;;;;5094010;28;20434;-70
2021/09/07 07:10:11;;;;;;;;;;;;;;;;;;5093915;28;19925;-70
2021/09/07 07:12:38;;;;;;;;;;;;;;;;;;5093964;28;19932;-70
2021/09/07 07:15:05;;;;;;;;;;;;;;;;;;5095658;28;19924;-69
2021/09/07 07:17:32;;;;;;;;;;;;;;;;;;5092948;28;19924;-69
2021/09/07 07:19:59;;;;;;;;;;;;;;;;;;5089708;28;19928;-71
2021/09/07 07:22:26;;;;;;;;;;;;;;;;;;5092400;28;20308;-72
2021/09/07 07:24:53;;;;;;;;;;;;;;;;;;5088676;28;19931;-69
2021/09/07 07:27:20;;;;;;;;;;;;;;;;;;5091000;28;19932;-72
2021/09/07 07:29:47;;;;;;;;;;;;;;;;;;5093233;28;19924;-70
2021/09/07 07:32:14;;;;;;;;;;;;;;;;;;5092605;28;19935;-68
2021/09/07 07:34:41;;;;;;;;;;;;;;;;;;5090061;28;19924;-70
2021/09/07 07:37:08;;;;;;;;;;;;;;;;;;5092542;28;19924;-69
2021/09/07 07:39:35;;;;;;;;;;;;;;;;;;5093450;28;19931;-71
2021/09/07 07:42:02;;;;;;;;;;;;;;;;;;5090221;28;19946;-69
2021/09/07 07:44:29;;;;;;;;;;;;;;;;;;5086991;28;20123;-69
2021/09/07 07:46:56;;;;;;;;;;;;;;;;;;5083861;28;20406;-70
2021/09/07 07:49:23;;;;;;;;;;;;;;;;;;5082649;28;19931;-70
2021/09/07 07:51:50;;;;;;;;;;;;;;;;;;5091648;28;19928;-71
2021/09/07 07:54:17;;;;;;;;;;;;;;;;;;5089107;28;20299;-68
2021/09/07 07:56:47;;;;;;;;;;;;;;;;;;5093226;28;19928;-71
2021/09/07 07:59:14;;;;;;;;;;;;;;;;;;5090149;28;19934;-70
2021/09/07 08:01:41;;;;;;;;;;;;;;;;;;5091673;28;19967;-70
2021/09/07 08:04:08;;;;;;;;;;;;;;;;;;5090332;28;19928;-69
2021/09/07 08:06:35;;;;;;;;;;;;;;;;;;5093500;28;19932;-70
2021/09/07 08:09:02;;;;;;;;;;;;;;;;;;5094292;28;19963;-71
2021/09/07 08:11:29;;;;;;;;;;;;;;;;;;5090189;28;19938;-69
2021/09/07 08:13:56;;;;;;;;;;;;;;;;;;5092161;28;19924;-70
2021/09/07 08:16:23;;;;;;;;;;;;;;;;;;5093132;28;20011;-69
2021/09/07 08:18:50;;;;;;;;;;;;;;;;;;5096874;28;19932;-69
2021/09/07 08:21:17;;;;;;;;;;;;;;;;;;5092024;28;20404;-70
2021/09/07 08:23:44;;;;;;;;;;;;;;;;;;5098325;28;19928;-69
2021/09/07 08:26:11;;;;;;;;;;;;;;;;;;5094558;28;19930;-69
2021/09/07 08:28:38;;;;;;;;;;;;;;;;;;5091233;28;19967;-68
2021/09/07 08:31:05;;;;;;;;;;;;;;;;;;5091817;28;19931;-69
2021/09/07 08:33:32;;;;;;;;;;;;;;;;;;5091710;28;19924;-69
2021/09/07 08:35:59;;;;;;;;;;;;;;;;;;5088583;28;19927;-70
2021/09/07 08:38:26;;;;;;;;;;;;;;;;;;5092436;28;20023;-69
2021/09/07 08:40:53;;;;;;;;;;;;;;;;;;5097967;28;20303;-70
2021/09/07 08:43:20;;;;;;;;;;;;;;;;;;5089280;28;19932;-71
2021/09/07 08:45:47;;;;;;;;;;;;;;;;;;5088515;28;19932;-70
2021/09/07 08:48:14;;;;;;;;;;;;;;;;;;5082922;28;19925;-71
2021/09/07 08:50:41;;;;;;;;;;;;;;;;;;5088643;28;19924;-69
2021/09/07 08:53:08;;;;;;;;;;;;;;;;;;5091092;28;20018;-68
2021/09/07 08:55:35;;;;;;;;;;;;;;;;;;5089446;28;20015;-72
2021/09/07 08:58:02;;;;;;;;;;;;;;;;;;5089364;28;20380;-69
2021/09/07 09:00:34;;;;;;;;;;;;;;;;;;5091017;28;19924;-71
2021/09/07 09:03:01;;;;;;;;;;;;;;;;;;5089359;28;19924;-70
2021/09/07 09:05:28;;;;;;;;;;;;;;;;;;5089736;28;19924;-71
2021/09/07 09:07:55;;;;;;;;;;;;;;;;;;5090658;28;19924;-69
2021/09/07 09:10:22;;;;;;;;;;;;;;;;;;5091056;28;19924;-69
2021/09/07 09:12:49;;;;;;;;;;;;;;;;;;5088770;28;20399;-70
2021/09/07 09:15:16;;;;;;;;;;;;;;;;;;5087262;28;19936;-68
2021/09/07 09:17:43;;;;;;;;;;;;;;;;;;5090719;28;19924;-69
2021/09/07 09:20:14;;;;;;;;;;;;;;;;;;5087991;28;20018;-69
2021/09/07 09:22:41;;;;;;;;;;;;;;;;;;5088196;28;19928;-68
2021/09/07 09:25:08;;;;;;;;;;;;;;;;;;5089729;28;19977;-68
2021/09/07 09:27:34;;;;;;;;;;;;;;;;;;5089418;28;19931;-67
2021/09/07 09:30:01;;;;;;;;;;;;;;;;;;5087814;28;19924;-69
2021/09/07 09:32:28;;;;;;;;;;;;;;;;;;5090183;28;19928;-70
2021/09/07 09:34:55;;;;;;;;;;;;;;;;;;5090926;28;19924;-69
2021/09/07 09:37:23;;;;;;;;;;;;;;;;;;5090966;28;19924;-69
2021/09/07 09:39:50;;;;;;;;;;;;;;;;;;5090229;28;20031;-69
2021/09/07 09:42:17;;;;;;;;;;;;;;;;;;5104959;22;19912;-69
2021/09/07 09:44:44;;;;;;;;;;;;;;;;;;5090134;28;19924;-69
2021/09/07 09:47:11;;;;;;;;;;;;;;;;;;5089792;28;19924;-71
2021/09/07 09:49:37;;;;;;;;;;;;;;;;;;5084845;28;19924;-69
2021/09/07 09:52:04;;;;;;;;;;;;;;;;;;5085067;28;19924;-69
2021/09/07 09:54:31;;;;;;;;;;;;;;;;;;5073318;28;19925;-69
2021/09/07 09:56:58;;;;;;;;;;;;;;;;;;5067800;28;20011;-69
2021/09/07 09:59:27;;;;;;;;;;;;;;;;;;5069251;28;20012;-69
2021/09/07 10:01:54;;;;;;;;;;;;;;;;;;5068952;28;20027;-69
2021/09/07 10:04:21;;;;;;;;;;;;;;;;;;5067252;28;20380;-69
2021/09/07 10:06:50;;;;;;;;;;;;;;;;;;5070188;28;19970;-69
2021/09/07 10:09:17;;;;;;;;;;;;;;;;;;5068869;28;19958;-68
2021/09/07 10:11:44;;;;;;;;;;;;;;;;;;5066641;28;19932;-69
2021/09/07 10:14:14;;;;;;;;;;;;;;;;;;5066426;28;19932;-69
2021/09/07 10:16:43;;;;;;;;;;;;;;;;;;5065712;28;19931;-69
2021/09/07 10:19:12;;;;;;;;;;;;;;;;;;5064083;28;19925;-70
2021/09/07 10:24:24;;;;;;;;;;;;;;;;;;5064632;28;19923;-69
2021/09/07 10:26:51;;;;;;;;;;;;;;;;;;5062611;28;19925;-69
2021/09/07 10:29:20;;;;;;;;;;;;;;;;;;5062073;28;19954;-69
2021/09/07 10:31:47;;;;;;;;;;;;;;;;;;5064692;28;19930;-69
2021/09/07 10:34:14;;;;;;;;;;;;;;;;;;5060695;28;20224;-69
2021/09/07 10:36:41;;;;;;;;;;;;;;;;;;5062566;28;20019;-69
2021/09/07 10:39:08;;;;;;;;;;;;;;;;;;5061325;28;19948;-69
2021/09/07 10:41:35;;;;;;;;;;;;;;;;;;5063422;28;19928;-69
2021/09/07 10:44:02;;;;;;;;;;;;;;;;;;5061248;28;19933;-69
2021/09/07 10:46:29;;;;;;;;;;;;;;;;;;5063223;28;20326;-69
2021/09/07 10:48:56;;;;;;;;;;;;;;;;;;5066280;28;19925;-69
2021/09/07 10:51:23;;;;;;;;;;;;;;;;;;5055812;28;19928;-69
2021/09/07 10:53:50;;;;;;;;;;;;;;;;;;5061471;28;19932;-68
2021/09/07 10:56:17;;;;;;;;;;;;;;;;;;5064927;28;19928;-68
2021/09/07 10:58:43;;;;;;;;;;;;;;;;;;5064505;28;19929;-68
2021/09/07 11:01:10;;;;;;;;;;;;;;;;;;5066902;28;19929;-69
2021/09/07 11:03:37;;;;;;;;;;;;;;;;;;5067053;28;20422;-69
2021/09/07 11:06:04;;;;;;;;;;;;;;;;;;5063314;28;19933;-69
2021/09/07 11:08:31;;;;;;;;;;;;;;;;;;5066433;28;19928;-69
2021/09/07 11:10:58;;;;;;;;;;;;;;;;;;5063063;28;20376;-68
2021/09/07 11:13:25;;;;;;;;;;;;;;;;;;5063911;28;19924;-68
2021/09/07 11:15:52;;;;;;;;;;;;;;;;;;5060669;28;19924;-69
2021/09/07 11:18:20;;;;;;;;;;;;;;;;;;5063438;28;19929;-69
2021/09/07 11:20:47;;;;;;;;;;;;;;;;;;5064823;28;20422;-68
2021/09/07 11:23:14;;;;;;;;;;;;;;;;;;5064342;28;19951;-69
2021/09/07 11:25:41;;;;;;;;;;;;;;;;;;5060107;28;20019;-69
2021/09/07 11:28:09;;;;;;;;;;;;;;;;;;5062807;28;20220;-69
2021/09/07 11:30:36;;;;;;;;;;;;;;;;;;5062993;28;20019;-68
2021/09/07 11:33:03;;;;;;;;;;;;;;;;;;5062263;28;20407;-68
2021/09/07 11:35:30;;;;;;;;;;;;;;;;;;5066791;28;19924;-68
2021/09/07 11:37:57;;;;;;;;;;;;;;;;;;5066057;28;19931;-68
2021/09/07 11:40:24;;;;;;;;;;;;;;;;;;5064974;28;19928;-68
2021/09/07 11:42:52;;;;;;;;;;;;;;;;;;5059071;28;19929;-68
2021/09/07 11:45:19;;;;;;;;;;;;;;;;;;5063644;28;19934;-68
2021/09/07 11:47:46;;;;;;;;;;;;;;;;;;5063436;28;20424;-68
2021/09/07 11:50:13;;;;;;;;;;;;;;;;;;5061715;28;20011;-69
2021/09/07 11:52:40;;;;;;;;;;;;;;;;;;5055944;28;19947;-69
2021/09/07 11:55:06;;;;;;;;;;;;;;;;;;5063707;28;19924;-68
2021/09/07 11:57:33;;;;;;;;;;;;;;;;;;5067178;28;19939;-68
2021/09/07 12:00:00;;;;;;;;;;;;;;;;;;5061702;28;19924;-69
2021/09/07 12:02:27;;;;;;;;;;;;;;;;;;5063694;28;19931;-69
2021/09/07 12:04:54;;;;;;;;;;;;;;;;;;5065949;28;19931;-69
2021/09/07 12:07:21;;;;;;;;;;;;;;;;;;5063079;28;20447;-69
2021/09/07 12:09:48;;;;;;;;;;;;;;;;;;5064161;28;19924;-69
2021/09/07 12:12:15;;;;;;;;;;;;;;;;;;5066901;28;19925;-69
2021/09/07 12:14:43;;;;;;;;;;;;;;;;;;5064590;28;19928;-70
2021/09/07 12:17:12;;;;;;;;;;;;;;;;;;5066236;28;19955;-69
2021/09/07 12:19:40;;;;;;;;;;;;;;;;;;5065439;28;19924;-70
2021/09/07 12:22:07;;;;;;;;;;;;;;;;;;5069187;28;19924;-70
2021/09/07 12:24:34;;;;;;;;;;;;;;;;;;5069907;28;19932;-70
2021/09/07 12:27:01;;;;;;;;;;;;;;;;;;5067721;28;20153;-70
2021/09/07 12:29:27;;;;;;;;;;;;;;;;;;5061214;28;19925;-70
2021/09/07 12:31:54;;;;;;;;;;;;;;;;;;5067102;28;19946;-69
2021/09/07 12:34:21;;;;;;;;;;;;;;;;;;5065229;28;19995;-69
2021/09/07 12:36:49;;;;;;;;;;;;;;;;;;5068562;28;20004;-70
2021/09/07 12:39:15;;;;;;;;;;;;;;;;;;5068481;28;19924;-70
2021/09/07 12:41:43;;;;;;;;;;;;;;;;;;5065760;28;19942;-70
2021/09/07 12:44:10;;;;;;;;;;;;;;;;;;5064924;28;19964;-70
2021/09/07 12:46:37;;;;;;;;;;;;;;;;;;5062056;28;19937;-68
2021/09/07 12:49:04;;;;;;;;;;;;;;;;;;5066432;28;20357;-68
2021/09/07 12:51:31;;;;;;;;;;;;;;;;;;5064223;28;19933;-70
2021/09/07 12:54:00;;;;;;;;;;;;;;;;;;5063248;28;20308;-69
2021/09/07 12:56:31;;;;;;;;;;;;;;;;;;5066672;28;19925;-69
2021/09/07 12:58:58;;;;;;;;;;;;;;;;;;5062297;28;20331;-68
2021/09/07 13:01:25;;;;;;;;;;;;;;;;;;5066591;28;20352;-68
2021/09/07 13:03:52;;;;;;;;;;;;;;;;;;5065082;28;20011;-70
2021/09/07 13:06:19;;;;;;;;;;;;;;;;;;5064867;28;20008;-71
2021/09/07 13:08:46;;;;;;;;;;;;;;;;;;5071031;28;19967;-70
2021/09/07 13:11:13;;;;;;;;;;;;;;;;;;5068636;28;20428;-71
2021/09/07 13:13:40;;;;;;;;;;;;;;;;;;5065587;28;19971;-70
2021/09/07 13:16:07;;;;;;;;;;;;;;;;;;5062867;28;19924;-69
2021/09/07 13:18:34;;;;;;;;;;;;;;;;;;5066519;28;19987;-70
2021/09/07 13:21:01;;;;;;;;;;;;;;;;;;5062257;28;19931;-68
2021/09/07 13:23:28;;;;;;;;;;;;;;;;;;5068911;28;19955;-70
2021/09/07 13:25:55;;;;;;;;;;;;;;;;;;5067662;28;19971;-70
2021/09/07 13:28:22;;;;;;;;;;;;;;;;;;5064701;28;19936;-69
2021/09/07 13:30:49;;;;;;;;;;;;;;;;;;5066177;28;19930;-69
2021/09/07 13:33:16;;;;;;;;;;;;;;;;;;5064068;28;19925;-69
2021/09/07 13:35:43;;;;;;;;;;;;;;;;;;5068644;28;19971;-70
2021/09/07 13:38:10;;;;;;;;;;;;;;;;;;5065308;28;19925;-70
2021/09/07 13:40:39;;;;;;;;;;;;;;;;;;5069814;28;20016;-69
2021/09/07 13:43:06;;;;;;;;;;;;;;;;;;5068132;28;19973;-70
2021/09/07 13:45:33;;;;;;;;;;;;;;;;;;5065736;28;19964;-69
2021/09/07 13:48:00;;;;;;;;;;;;;;;;;;5067942;28;19931;-70
2021/09/07 13:50:27;;;;;;;;;;;;;;;;;;5066374;28;20012;-69
2021/09/07 13:52:54;;;;;;;;;;;;;;;;;;5062717;28;19929;-69
2021/09/07 13:55:21;;;;;;;;;;;;;;;;;;5060735;28;19935;-70
2021/09/07 13:57:48;;;;;;;;;;;;;;;;;;5065536;28;20022;-71
2021/09/07 14:00:15;;;;;;;;;;;;;;;;;;5063571;28;19928;-70
2021/09/07 14:02:42;;;;;;;;;;;;;;;;;;5065411;28;20019;-71
2021/09/07 14:05:09;;;;;;;;;;;;;;;;;;5064361;28;19931;-74
2021/09/07 14:07:36;;;;;;;;;;;;;;;;;;5066675;28;19943;-70
2021/09/07 14:10:03;;;;;;;;;;;;;;;;;;5063906;28;20515;-69
2021/09/07 14:12:30;;;;;;;;;;;;;;;;;;5064451;28;19939;-69
2021/09/07 14:14:58;;;;;;;;;;;;;;;;;;5064761;28;19998;-71
2021/09/07 14:17:25;;;;;;;;;;;;;;;;;;5062042;28;20393;-69
2021/09/07 14:19:52;;;;;;;;;;;;;;;;;;5064987;28;20015;-69
2021/09/07 14:22:19;;;;;;;;;;;;;;;;;;5068162;28;19968;-69
2021/09/07 14:24:46;;;;;;;;;;;;;;;;;;5062256;28;19931;-70
2021/09/07 14:29:54;;;;;;;;;;;;;;;;;;5058224;28;20015;-70
2021/09/07 14:32:21;;;;;;;;;;;;;;;;;;5064685;28;20385;-69
2021/09/07 14:34:48;;;;;;;;;;;;;;;;;;5068641;28;20003;-70
2021/09/07 14:37:16;;;;;;;;;;;;;;;;;;5065006;28;20263;-68
2021/09/07 14:39:43;;;;;;;;;;;;;;;;;;5061286;28;19927;-68
2021/09/07 14:42:10;;;;;;;;;;;;;;;;;;5060097;28;20281;-68
2021/09/07 14:44:37;;;;;;;;;;;;;;;;;;5064886;28;19924;-70
2021/09/07 14:47:04;;;;;;;;;;;;;;;;;;5065833;28;19928;-70
2021/09/07 14:49:31;;;;;;;;;;;;;;;;;;5061173;28;20376;-72
2021/09/07 14:51:58;;;;;;;;;;;;;;;;;;5067940;28;19968;-70
2021/09/07 14:54:25;;;;;;;;;;;;;;;;;;5059304;28;19928;-69
2021/09/07 14:56:52;;;;;;;;;;;;;;;;;;5058619;28;20408;-71
2021/09/07 14:59:19;;;;;;;;;;;;;;;;;;5065184;28;20355;-69
2021/09/07 15:01:46;;;;;;;;;;;;;;;;;;5067534;28;19924;-70
2021/09/07 15:04:13;;;;;;;;;;;;;;;;;;5067527;28;19924;-68
2021/09/07 15:06:40;;;;;;;;;;;;;;;;;;5063557;28;20290;-69
2021/09/07 15:09:07;;;;;;;;;;;;;;;;;;5063475;28;19935;-70
2021/09/07 15:11:34;;;;;;;;;;;;;;;;;;5062180;28;19928;-70
2021/09/07 15:14:01;;;;;;;;;;;;;;;;;;5060617;28;20394;-70
2021/09/07 15:16:28;;;;;;;;;;;;;;;;;;5063775;28;19943;-70
2021/09/07 15:18:55;;;;;;;;;;;;;;;;;;5065273;28;19925;-68
2021/09/07 15:21:22;;;;;;;;;;;;;;;;;;5061844;28;20024;-69
2021/09/07 15:23:49;;;;;;;;;;;;;;;;;;5063218;28;20015;-70
2021/09/07 15:26:16;;;;;;;;;;;;;;;;;;5064776;28;19931;-69
2021/09/07 15:28:43;;;;;;;;;;;;;;;;;;5059919;28;19925;-71
2021/09/07 15:31:10;;;;;;;;;;;;;;;;;;5063559;28;19925;-70
2021/09/07 15:33:37;;;;;;;;;;;;;;;;;;5069649;28;19925;-71
2021/09/07 15:36:04;;;;;;;;;;;;;;;;;;5069702;28;19936;-71
2021/09/07 15:38:31;;;;;;;;;;;;;;;;;;5067517;28;20456;-70
2021/09/07 15:40:59;;;;;;;;;;;;;;;;;;5064920;28;19924;-72
2021/09/07 15:43:26;;;;;;;;;;;;;;;;;;5095695;22;20287;-67
2021/09/07 15:45:53;;;;;;;;;;;;;;;;;;5087527;28;19924;-67
2021/09/07 15:48:20;;;;;;;;;;;;;;;;;;5083817;28;20380;-67
2021/09/07 15:50:47;;;;;;;;;;;;;;;;;;5087496;28;19932;-66
2021/09/07 15:53:14;;;;;;;;;;;;;;;;;;5090010;28;19924;-65
2021/09/07 15:55:41;;;;;;;;;;;;;;;;;;5092643;28;20352;-65
2021/09/07 15:58:09;;;;;;;;;;;;;;;;;;5089811;28;19925;-66
2021/09/07 16:00:36;;;;;;;;;;;;;;;;;;5089133;28;19970;-69
2021/09/07 16:03:03;;;;;;;;;;;;;;;;;;5087297;28;19932;-66
2021/09/07 16:05:30;;;;;;;;;;;;;;;;;;5094367;28;19962;-65
2021/09/07 16:07:59;;;;;;;;;;;;;;;;;;5091277;28;19963;-66
2021/09/07 16:10:26;;;;;;;;;;;;;;;;;;5087079;28;19932;-66
2021/09/07 16:12:53;;;;;;;;;;;;;;;;;;5084239;28;19977;-66
2021/09/07 16:15:20;;;;;;;;;;;;;;;;;;5088748;28;20023;-64
2021/09/07 16:17:48;;;;;;;;;;;;;;;;;;5087753;28;19934;-65
2021/09/07 16:20:15;;;;;;;;;;;;;;;;;;5088695;28;19931;-66
2021/09/07 16:22:42;;;;;;;;;;;;;;;;;;5084619;28;19971;-64
2021/09/07 16:25:09;;;;;;;;;;;;;;;;;;5088503;28;20189;-65
2021/09/07 16:27:36;;;;;;;;;;;;;;;;;;5087654;28;19954;-66
2021/09/07 16:30:03;;;;;;;;;;;;;;;;;;5081959;28;19928;-67
2021/09/07 16:32:30;;;;;;;;;;;;;;;;;;5086818;28;19928;-67
2021/09/07 16:34:57;;;;;;;;;;;;;;;;;;5086643;28;19972;-66
2021/09/07 16:37:24;;;;;;;;;;;;;;;;;;5086991;28;19924;-66
2021/09/07 16:39:51;;;;;;;;;;;;;;;;;;5090578;28;20384;-66
2021/09/07 16:42:18;;;;;;;;;;;;;;;;;;5088113;28;19939;-65
2021/09/07 16:44:45;;;;;;;;;;;;;;;;;;5087451;28;19959;-67
2021/09/07 16:47:12;;;;;;;;;;;;;;;;;;5090031;28;20295;-65
2021/09/07 16:49:39;;;;;;;;;;;;;;;;;;5088103;28;19930;-65